Time;durP1;ratioP1;P1;durP2;ratioP2;P2;SDS_P1;SDS_P2;PMS_P1;PMS_P2;Temp;Humidity;BMP_temperature;BMP_pressure;BME280_temperature;BME280_humidity;BME280_pressure;Samples;Min_cycle;Max_cycle;Signal;HPM_P1;HPM_P2
2021/10/03 00:02:01;;;;;;;;;;;;;;;3.33;65.13;101844.56;4889225;29;20014;-80
2021/10/03 00:04:29;;;;;;;;;;;;;;;3.26;64.90;101848.50;4857426;29;19967;-78
2021/10/03 00:06:55;;;;;;;;;;;;;;;3.25;65.39;101849.28;4872018;29;19947;-77
2021/10/03 00:09:24;;;;;;;;;;;;;;;3.27;65.47;101842.53;4873447;29;19923;-79
2021/10/03 00:11:50;;;;;;;;;;;;;;;3.28;65.20;101848.59;4873778;29;20368;-77
2021/10/03 00:14:16;;;;;;;;;;;;;;;3.25;65.19;101851.88;4874286;29;19934;-79
2021/10/03 00:16:43;;;;;;;;;;;;;;;3.24;65.34;101850.09;4882014;29;19923;-79
2021/10/03 00:19:09;;;;;;;;;;;;;;;3.17;65.33;101846.31;4882783;29;19924;-78
2021/10/03 00:21:34;;;;;;;;;;;;;;;3.19;65.11;101842.94;4879636;29;19923;-77
2021/10/03 00:24:00;;;;;;;;;;;;;;;3.12;65.48;101841.72;4895926;29;19951;-77
2021/10/03 00:26:25;;;;;;;;;;;;;;;3.08;65.33;101844.94;4885416;29;19967;-78
2021/10/03 00:28:51;;;;;;;;;;;;;;;3.08;65.77;101840.69;4875634;29;19928;-78
2021/10/03 00:31:17;;;;;;;;;;;;;;;3.06;65.19;101839.72;4875311;29;20400;-79
2021/10/03 00:33:42;;;;;;;;;;;;;;;3.04;65.35;101846.47;4861760;29;19931;-79
2021/10/03 00:36:08;;;;;;;;;;;;;;;3.05;65.31;101844.75;4873545;29;19978;-78
2021/10/03 00:38:34;;;;;;;;;;;;;;;3.01;65.42;101844.59;4872359;29;20332;-77
2021/10/03 00:41:00;;;;;;;;;;;;;;;3.04;65.39;101845.56;4873781;29;19924;-77
2021/10/03 00:43:26;;;;;;;;;;;;;;;3.03;65.80;101841.22;4873726;29;19983;-77
2021/10/03 00:45:52;;;;;;;;;;;;;;;3.04;65.36;101843.88;4858761;29;19935;-77
2021/10/03 00:48:17;;;;;;;;;;;;;;;2.97;65.19;101850.38;4872441;29;19924;-77
2021/10/03 00:50:44;;;;;;;;;;;;;;;2.64;65.51;101806.56;4872110;29;19966;-77
2021/10/03 00:53:11;;;;;;;;;;;;;;;2.83;65.41;101849.63;4873705;29;19931;-77
2021/10/03 00:55:38;;;;;;;;;;;;;;;2.84;65.33;101843.69;4872975;29;19970;-78
2021/10/03 00:58:03;;;;;;;;;;;;;;;2.84;65.68;101846.25;4858239;29;19932;-80
2021/10/03 01:00:30;;;;;;;;;;;;;;;2.84;65.03;101842.78;4875261;29;20452;-78
2021/10/03 01:02:56;;;;;;;;;;;;;;;2.86;65.70;101843.75;4875060;29;19927;-78
2021/10/03 01:05:22;;;;;;;;;;;;;;;2.85;65.50;101844.56;4875138;29;19931;-78
2021/10/03 01:07:47;;;;;;;;;;;;;;;2.64;65.42;101809.13;4876526;29;19923;-79
2021/10/03 01:10:16;;;;;;;;;;;;;;;2.82;65.36;101837.56;4874973;29;19923;-78
2021/10/03 01:12:41;;;;;;;;;;;;;;;2.85;65.69;101836.84;4875555;29;19930;-79
2021/10/03 01:15:08;;;;;;;;;;;;;;;2.86;65.19;101829.22;4875007;29;19928;-77
2021/10/03 01:17:34;;;;;;;;;;;;;;;2.87;65.58;101822.38;4873913;29;19930;-78
2021/10/03 01:20:00;;;;;;;;;;;;;;;2.88;65.63;101830.97;4875720;29;20383;-77
2021/10/03 01:22:26;;;;;;;;;;;;;;;2.89;65.62;101830.16;4874508;29;20108;-77
2021/10/03 01:24:53;;;;;;;;;;;;;;;2.83;65.45;101835.88;4859330;29;19932;-79
2021/10/03 01:27:20;;;;;;;;;;;;;;;2.80;65.69;101843.41;4874839;29;20438;-78
2021/10/03 01:29:49;;;;;;;;;;;;;;;2.76;65.00;101841.50;4875464;29;19923;-78
2021/10/03 01:32:15;;;;;;;;;;;;;;;2.74;65.83;101840.50;4871765;29;19931;-78
2021/10/03 01:34:42;;;;;;;;;;;;;;;2.73;65.66;101831.03;4876794;29;19931;-78
2021/10/03 01:37:08;;;;;;;;;;;;;;;2.74;65.74;101832.81;4874668;29;19939;-78
2021/10/03 01:39:33;;;;;;;;;;;;;;;2.74;65.76;101831.09;4859598;29;19991;-79
2021/10/03 01:41:59;;;;;;;;;;;;;;;2.75;65.67;101835.44;4875937;29;20022;-78
2021/10/03 01:44:24;;;;;;;;;;;;;;;2.76;65.61;101837.22;4875485;29;20014;-77
2021/10/03 01:46:50;;;;;;;;;;;;;;;2.78;65.79;101834.72;4886472;29;19923;-78
2021/10/03 01:49:15;;;;;;;;;;;;;;;2.68;65.75;101838.47;4876689;29;19984;-78
2021/10/03 01:51:41;;;;;;;;;;;;;;;2.57;65.49;101837.84;4844576;29;20396;-78
2021/10/03 01:54:07;;;;;;;;;;;;;;;2.58;65.88;101837.06;4874738;29;20019;-77
2021/10/03 01:56:32;;;;;;;;;;;;;;;2.60;65.92;101835.47;4876469;29;20074;-80
2021/10/03 01:59:00;;;;;;;;;;;;;;;2.62;66.05;101835.56;4876161;29;19923;-80
2021/10/03 02:01:28;;;;;;;;;;;;;;;2.64;65.93;101840.00;4876289;29;20475;-77
2021/10/03 02:03:53;;;;;;;;;;;;;;;2.58;65.88;101838.75;4859691;29;20303;-79
2021/10/03 02:06:19;;;;;;;;;;;;;;;2.58;66.18;101843.91;4852824;29;19924;-77
2021/10/03 02:08:48;;;;;;;;;;;;;;;2.58;66.00;101849.91;4854514;29;20023;-78
2021/10/03 02:11:14;;;;;;;;;;;;;;;2.59;66.00;101848.25;4863646;29;19930;-79
2021/10/03 02:13:39;;;;;;;;;;;;;;;2.58;66.02;101851.63;4878083;29;20025;-78
2021/10/03 02:16:05;;;;;;;;;;;;;;;2.56;66.12;101849.84;4886876;29;20015;-80
2021/10/03 02:18:32;;;;;;;;;;;;;;;2.57;66.26;101845.56;4868874;29;20022;-79
2021/10/03 02:20:58;;;;;;;;;;;;;;;2.58;66.30;101847.34;4878350;29;19984;-80
2021/10/03 02:23:23;;;;;;;;;;;;;;;2.55;66.14;101845.50;4874719;29;19955;-79
2021/10/03 02:25:49;;;;;;;;;;;;;;;2.58;66.22;101842.19;4880813;29;19928;-77
2021/10/03 02:28:16;;;;;;;;;;;;;;;2.60;66.46;101850.88;4900401;29;19954;-79
2021/10/03 02:30:43;;;;;;;;;;;;;;;2.65;66.46;101844.34;4901113;29;19947;-77
2021/10/03 02:33:09;;;;;;;;;;;;;;;2.67;66.50;101845.31;4883697;29;19957;-78
2021/10/03 02:35:38;;;;;;;;;;;;;;;2.65;66.30;101846.91;4878844;29;19983;-78
2021/10/03 02:38:04;;;;;;;;;;;;;;;2.66;66.57;101845.19;4878360;29;20273;-78
2021/10/03 02:40:31;;;;;;;;;;;;;;;2.65;66.39;101846.03;4860349;29;20018;-78
2021/10/03 02:43:00;;;;;;;;;;;;;;;2.62;66.58;101851.88;4876611;29;20080;-79
2021/10/03 02:45:26;;;;;;;;;;;;;;;2.62;66.32;101854.44;4874556;29;20008;-77
2021/10/03 02:47:52;;;;;;;;;;;;;;;2.62;65.97;101849.28;4843599;29;19928;-79
2021/10/03 02:50:17;;;;;;;;;;;;;;;2.63;66.43;101845.94;4858877;29;19930;-78
2021/10/03 02:52:45;;;;;;;;;;;;;;;2.60;66.10;101850.88;4874551;29;20029;-78
2021/10/03 02:55:11;;;;;;;;;;;;;;;2.61;66.12;101847.53;4875921;29;19928;-78
2021/10/03 02:57:37;;;;;;;;;;;;;;;2.65;66.23;101846.91;4874349;29;19931;-78
2021/10/03 03:00:04;;;;;;;;;;;;;;;2.65;66.23;101846.03;4874689;29;20018;-79
2021/10/03 03:02:30;;;;;;;;;;;;;;;2.61;66.31;101847.53;4869864;29;19924;-78
2021/10/03 03:04:55;;;;;;;;;;;;;;;2.59;66.60;101854.25;4874249;29;20046;-78
2021/10/03 03:07:21;;;;;;;;;;;;;;;2.55;65.96;101848.06;4876425;29;19924;-77
2021/10/03 03:09:46;;;;;;;;;;;;;;;2.52;66.14;101855.59;4882466;29;19923;-80
2021/10/03 03:12:12;;;;;;;;;;;;;;;2.49;66.33;101855.41;4874727;29;20455;-78
2021/10/03 03:14:37;;;;;;;;;;;;;;;2.49;66.51;101862.25;4842726;29;20339;-78
2021/10/03 03:17:12;;;;;;;;;;;;;;;2.47;66.19;101853.56;4857989;29;20414;-77
2021/10/03 03:19:38;;;;;;;;;;;;;;;2.49;66.49;101855.41;4873644;29;19946;-78
2021/10/03 03:22:03;;;;;;;;;;;;;;;2.48;66.46;101851.09;4858222;29;19923;-78
2021/10/03 03:24:29;;;;;;;;;;;;;;;2.43;66.45;101855.06;4877579;29;19991;-80
2021/10/03 03:26:54;;;;;;;;;;;;;;;2.44;66.67;101849.13;4877730;29;20338;-78
2021/10/03 03:29:20;;;;;;;;;;;;;;;2.39;66.38;101859.16;4845437;29;19930;-77
2021/10/03 03:31:46;;;;;;;;;;;;;;;2.39;66.89;101860.84;4874759;29;19923;-79
2021/10/03 03:34:11;;;;;;;;;;;;;;;2.39;66.31;101861.72;4860575;29;20098;-79
2021/10/03 03:36:37;;;;;;;;;;;;;;;2.41;66.77;101861.81;4877850;29;19924;-79
2021/10/03 03:39:02;;;;;;;;;;;;;;;2.45;66.74;101865.44;4863051;29;19924;-78
2021/10/03 03:41:28;;;;;;;;;;;;;;;2.43;66.58;101855.06;4877372;29;19923;-78
2021/10/03 03:43:53;;;;;;;;;;;;;;;2.48;66.18;101865.63;4874758;29;19932;-79
2021/10/03 03:46:19;;;;;;;;;;;;;;;2.55;66.61;101860.91;4874991;29;19946;-79
2021/10/03 03:48:44;;;;;;;;;;;;;;;2.61;66.41;101854.38;4882041;29;19932;-78
2021/10/03 03:51:10;;;;;;;;;;;;;;;2.66;66.71;101846.09;4891882;29;19903;-78
2021/10/03 03:53:35;;;;;;;;;;;;;;;2.74;66.30;101855.94;4880260;29;19975;-78
2021/10/03 03:56:01;;;;;;;;;;;;;;;2.82;66.34;101852.09;4892802;29;19935;-78
2021/10/03 03:58:27;;;;;;;;;;;;;;;2.90;66.49;101853.41;4870917;29;19924;-78
2021/10/03 04:00:52;;;;;;;;;;;;;;;2.98;66.44;101852.13;4896114;29;19942;-78
2021/10/03 04:03:18;;;;;;;;;;;;;;;3.05;66.76;101848.22;4880686;29;19935;-78
2021/10/03 04:05:43;;;;;;;;;;;;;;;3.12;66.60;101847.75;4884451;29;19924;-79
2021/10/03 04:08:09;;;;;;;;;;;;;;;3.23;66.60;101850.03;4882126;29;19923;-77
2021/10/03 04:10:35;;;;;;;;;;;;;;;3.36;66.85;101844.72;4863988;29;19930;-78
2021/10/03 04:13:00;;;;;;;;;;;;;;;3.54;66.43;101847.41;4881106;29;19963;-78
2021/10/03 04:15:26;;;;;;;;;;;;;;;3.72;66.56;101847.47;4870602;29;19932;-75
2021/10/03 04:17:52;;;;;;;;;;;;;;;3.94;65.99;101848.59;4886465;29;20637;-77
2021/10/03 04:20:17;;;;;;;;;;;;;;;4.12;66.26;101850.31;4855551;29;19923;-77
2021/10/03 04:22:43;;;;;;;;;;;;;;;4.40;66.08;101852.56;4885376;29;20321;-78
2021/10/03 04:25:08;;;;;;;;;;;;;;;4.47;64.99;101851.16;4877676;29;19928;-78
2021/10/03 04:27:34;;;;;;;;;;;;;;;4.94;66.16;101855.16;4881558;29;19959;-78
2021/10/03 04:30:03;;;;;;;;;;;;;;;5.84;65.65;101848.84;4883450;29;19995;-79
2021/10/03 04:32:29;;;;;;;;;;;;;;;6.83;64.86;101838.22;4875903;29;20027;-79
2021/10/03 04:34:54;;;;;;;;;;;;;;;7.74;63.54;101836.41;4881271;29;19924;-78
2021/10/03 04:37:20;;;;;;;;;;;;;;;8.31;61.65;101833.97;4886820;29;20384;-79
2021/10/03 04:39:46;;;;;;;;;;;;;;;8.68;61.37;101828.31;4879915;29;19935;-78
2021/10/03 04:42:14;;;;;;;;;;;;;;;9.22;60.60;101834.22;4878219;29;19983;-79
2021/10/03 04:45:00;;;;;;;;;;;;;;;9.78;60.05;101825.38;4851768;29;19972;-78
2021/10/03 04:47:26;;;;;;;;;;;;;;;9.99;59.02;101830.25;4876719;29;20341;-78
2021/10/03 04:50:00;;;;;;;;;;;;;;;9.90;58.04;101835.22;4876897;29;19924;-79
2021/10/03 04:52:29;;;;;;;;;;;;;;;10.05;58.05;101835.63;4870363;29;19930;-80
2021/10/03 04:55:00;;;;;;;;;;;;;;;10.87;59.02;101821.09;4877163;29;20770;-79
2021/10/03 04:57:26;;;;;;;;;;;;;;;11.51;57.20;101825.03;4873253;29;19931;-78
2021/10/03 04:59:51;;;;;;;;;;;;;;;12.37;56.57;101823.06;4878442;29;19958;-78
2021/10/03 05:02:18;;;;;;;;;;;;;;;12.81;54.91;101824.59;4879029;29;19924;-79
2021/10/03 05:04:44;;;;;;;;;;;;;;;13.24;53.83;101813.84;4861592;29;19924;-79
2021/10/03 05:07:10;;;;;;;;;;;;;;;14.16;54.71;101807.81;4876666;29;19972;-79
2021/10/03 05:09:35;;;;;;;;;;;;;;;15.21;52.16;101804.97;4881066;29;19952;-79
2021/10/03 05:12:01;;;;;;;;;;;;;;;16.15;50.68;101798.16;4866248;29;19923;-79
2021/10/03 05:14:26;;;;;;;;;;;;;;;16.64;49.50;101810.38;4866204;29;19978;-78
2021/10/03 05:16:52;;;;;;;;;;;;;;;17.19;48.12;101805.84;4866827;29;19938;-79
2021/10/03 05:19:17;;;;;;;;;;;;;;;17.76;46.59;101805.50;4847983;29;19924;-80
2021/10/03 05:21:46;;;;;;;;;;;;;;;17.95;47.27;101800.09;4878790;29;19931;-77
2021/10/03 05:24:14;;;;;;;;;;;;;;;18.43;46.57;101792.69;4877918;29;19995;-78
2021/10/03 05:27:06;;;;;;;;;;;;;;;19.19;45.62;101796.25;4877714;29;20084;-78
2021/10/03 05:29:32;;;;;;;;;;;;;;;19.92;43.65;101797.88;4872843;29;19927;-80
2021/10/03 05:31:58;;;;;;;;;;;;;;;18.96;42.86;101800.91;4877199;29;19924;-80
2021/10/03 05:34:23;;;;;;;;;;;;;;;17.72;44.87;101812.56;4881128;29;19923;-79
2021/10/03 05:36:50;;;;;;;;;;;;;;;18.77;45.44;101810.75;4885944;29;19935;-78
2021/10/03 05:39:18;;;;;;;;;;;;;;;19.59;43.93;101810.66;4851455;29;19924;-80
2021/10/03 05:41:44;;;;;;;;;;;;;;;20.34;42.18;101802.41;4869144;29;20026;-78
2021/10/03 05:44:09;;;;;;;;;;;;;;;20.52;42.56;101788.88;4881875;29;19924;-78
2021/10/03 05:46:35;;;;;;;;;;;;;;;21.15;42.04;101804.41;4882733;29;20554;-79
2021/10/03 05:49:01;;;;;;;;;;;;;;;21.80;39.30;101798.53;4883396;29;19923;-79
2021/10/03 05:51:27;;;;;;;;;;;;;;;21.82;39.41;101790.53;4869974;29;19924;-77
2021/10/03 05:53:52;;;;;;;;;;;;;;;21.71;38.80;101801.41;4883897;29;19935;-81
2021/10/03 05:56:18;;;;;;;;;;;;;;;21.71;38.72;101797.91;4880188;29;20905;-79
2021/10/03 05:58:59;;;;;;;;;;;;;;;22.52;38.80;101797.63;4861440;29;19971;-80
2021/10/03 06:01:28;;;;;;;;;;;;;;;24.02;37.09;101786.91;4878624;29;20392;-79
2021/10/03 06:03:59;;;;;;;;;;;;;;;24.03;34.89;101775.34;4876612;29;19928;-80
2021/10/03 06:06:27;;;;;;;;;;;;;;;22.79;35.59;101784.50;4884287;29;19983;-79
2021/10/03 06:08:53;;;;;;;;;;;;;;;21.87;36.13;101796.63;4869871;29;19928;-79
2021/10/03 06:12:08;;;;;;;;;;;;;;;21.63;36.41;101800.69;4881712;29;19923;-83
2021/10/03 06:14:37;;;;;;;;;;;;;;;21.90;36.97;101793.88;4863451;29;19943;-82
2021/10/03 06:17:03;;;;;;;;;;;;;;;21.99;35.84;101789.25;4881617;29;19927;-79
2021/10/03 06:19:29;;;;;;;;;;;;;;;22.19;35.29;101783.44;4879692;29;20319;-78
2021/10/03 06:21:55;;;;;;;;;;;;;;;22.60;35.56;101791.25;4857138;29;19962;-75
2021/10/03 06:24:22;;;;;;;;;;;;;;;23.85;34.47;101783.94;4882392;29;19924;-75
2021/10/03 06:26:48;;;;;;;;;;;;;;;24.95;31.22;101780.09;4881774;29;20051;-78
2021/10/03 06:29:15;;;;;;;;;;;;;;;25.66;31.71;101779.13;4889916;29;20444;-80
2021/10/03 06:31:40;;;;;;;;;;;;;;;25.96;31.12;101768.97;4863767;29;19924;-81
2021/10/03 06:34:06;;;;;;;;;;;;;;;26.64;30.70;101770.47;4878354;29;19934;-79
2021/10/03 06:36:31;;;;;;;;;;;;;;;26.50;29.55;101772.91;4868655;29;19931;-79
2021/10/03 06:38:57;;;;;;;;;;;;;;;26.67;30.79;101773.00;4885604;29;19928;-79
2021/10/03 06:41:23;;;;;;;;;;;;;;;27.44;29.67;101771.19;4875660;29;19944;-80
2021/10/03 06:43:49;;;;;;;;;;;;;;;26.79;29.34;101757.38;4888289;29;19923;-74
2021/10/03 06:46:14;;;;;;;;;;;;;;;27.62;27.75;101765.91;4867605;29;19966;-78
2021/10/03 06:48:40;;;;;;;;;;;;;;;28.24;28.33;101760.13;4881004;29;19931;-77
2021/10/03 06:51:06;;;;;;;;;;;;;;;29.22;26.99;101762.91;4881192;29;19979;-75
2021/10/03 06:53:34;;;;;;;;;;;;;;;28.76;28.08;101763.63;4868257;29;19931;-78
2021/10/03 06:56:00;;;;;;;;;;;;;;;28.30;27.57;101759.78;4881423;29;19930;-79
2021/10/03 06:58:27;;;;;;;;;;;;;;;28.76;27.17;101761.84;4867314;29;19932;-79
2021/10/03 07:00:53;;;;;;;;;;;;;;;29.75;26.68;101766.13;4878187;29;19923;-74
2021/10/03 07:03:18;;;;;;;;;;;;;;;29.74;26.49;101759.88;4876611;29;19931;-78
2021/10/03 07:05:44;;;;;;;;;;;;;;;30.54;25.19;101749.75;4862383;29;20380;-80
2021/10/03 07:08:12;;;;;;;;;;;;;;;31.11;25.31;101751.50;4846547;29;19923;-78
2021/10/03 07:10:37;;;;;;;;;;;;;;;31.38;24.46;101748.00;4879496;29;19927;-75
2021/10/03 07:13:03;;;;;;;;;;;;;;;30.95;24.51;101755.19;4878310;29;19931;-75
2021/10/03 07:15:32;;;;;;;;;;;;;;;30.10;24.65;101747.03;4876412;29;19924;-81
2021/10/03 07:18:01;;;;;;;;;;;;;;;29.79;24.50;101753.38;4878190;29;19928;-78
2021/10/03 07:20:27;;;;;;;;;;;;;;;29.17;24.50;101763.13;4876285;29;19923;-78
2021/10/03 07:22:52;;;;;;;;;;;;;;;29.35;24.93;101752.34;4875725;29;19928;-75
2021/10/03 07:25:18;;;;;;;;;;;;;;;28.71;24.46;101755.84;4875960;29;19924;-75
2021/10/03 07:27:44;;;;;;;;;;;;;;;28.26;25.26;101751.06;4857864;29;19951;-77
2021/10/03 07:30:09;;;;;;;;;;;;;;;28.24;24.15;101768.16;4859496;29;19931;-76
2021/10/03 07:32:36;;;;;;;;;;;;;;;27.65;24.50;101763.97;4875495;29;20385;-73
2021/10/03 07:35:06;;;;;;;;;;;;;;;28.40;24.50;101754.81;4874700;29;19974;-75
2021/10/03 07:37:31;;;;;;;;;;;;;;;28.68;23.33;101764.03;4860234;29;19950;-77
2021/10/03 07:39:57;;;;;;;;;;;;;;;28.17;23.91;101756.03;4876167;29;19927;-77
2021/10/03 07:42:24;;;;;;;;;;;;;;;29.31;23.93;101746.25;4875990;29;19924;-78
2021/10/03 07:44:53;;;;;;;;;;;;;;;31.03;22.63;101735.88;4871549;29;19927;-76
2021/10/03 07:47:22;;;;;;;;;;;;;;;31.83;21.95;101732.41;4875077;29;19940;-77
2021/10/03 07:49:48;;;;;;;;;;;;;;;32.17;20.40;101739.09;4875859;29;19948;-76
2021/10/03 07:52:14;;;;;;;;;;;;;;;31.61;20.80;101737.50;4856309;29;20610;-76
2021/10/03 07:54:40;;;;;;;;;;;;;;;31.36;22.34;101742.69;4870398;29;19931;-76
2021/10/03 07:57:06;;;;;;;;;;;;;;;32.26;22.14;101733.06;4859046;29;19931;-76
2021/10/03 07:59:34;;;;;;;;;;;;;;;32.40;20.87;101741.03;4874022;29;19923;-78
2021/10/03 08:02:00;;;;;;;;;;;;;;;31.91;21.19;101731.00;4854822;29;19931;-78
2021/10/03 08:04:29;;;;;;;;;;;;;;;31.59;21.63;101742.13;4872786;29;19980;-79
2021/10/03 08:06:55;;;;;;;;;;;;;;;31.33;20.99;101742.06;4875963;29;20410;-77
2021/10/03 08:09:21;;;;;;;;;;;;;;;31.30;22.04;101734.19;4875385;29;19923;-77
2021/10/03 08:11:46;;;;;;;;;;;;;;;32.68;20.57;101732.78;4886087;29;20015;-76
2021/10/03 08:14:12;;;;;;;;;;;;;;;33.43;20.50;101728.25;4875528;29;20060;-77
2021/10/03 08:16:38;;;;;;;;;;;;;;;34.14;19.56;101730.88;4877028;29;20411;-79
2021/10/03 08:19:04;;;;;;;;;;;;;;;32.56;20.09;101737.22;4863265;29;20493;-78
2021/10/03 08:21:29;;;;;;;;;;;;;;;30.72;19.75;101743.22;4878677;29;19924;-78
2021/10/03 08:23:55;;;;;;;;;;;;;;;30.66;20.83;101735.59;4879036;29;19924;-75
2021/10/03 08:26:21;;;;;;;;;;;;;;;31.51;20.29;101743.50;4866510;29;19928;-78
2021/10/03 08:28:47;;;;;;;;;;;;;;;30.97;21.49;101736.28;4877632;29;19923;-73
2021/10/03 08:31:13;;;;;;;;;;;;;;;32.15;19.10;101734.66;4881878;29;19928;-80
2021/10/03 08:33:38;;;;;;;;;;;;;;;31.85;19.68;101730.47;4852062;29;19930;-76
2021/10/03 08:36:07;;;;;;;;;;;;;;;31.45;19.52;101741.22;4880381;29;19923;-77
2021/10/03 08:38:33;;;;;;;;;;;;;;;31.09;20.44;101737.28;4876268;29;19966;-75
2021/10/03 08:41:00;;;;;;;;;;;;;;;30.85;19.45;101735.25;4871770;29;20311;-75
2021/10/03 08:43:26;;;;;;;;;;;;;;;30.20;20.22;101729.44;4880191;29;19923;-76
2021/10/03 08:45:53;;;;;;;;;;;;;;;30.14;20.28;101739.66;4865442;29;19975;-75
2021/10/03 08:48:18;;;;;;;;;;;;;;;29.82;19.19;101750.50;4898135;29;20021;-75
2021/10/03 08:50:45;;;;;;;;;;;;;;;28.53;20.23;101742.50;4885603;29;19928;-80
2021/10/03 08:53:11;;;;;;;;;;;;;;;27.87;22.10;101740.59;4879879;29;19930;-76
2021/10/03 08:55:36;;;;;;;;;;;;;;;28.81;21.03;101748.19;4878911;29;19982;-75
2021/10/03 08:58:02;;;;;;;;;;;;;;;29.80;19.72;101733.63;4878703;29;20468;-74
2021/10/03 09:00:28;;;;;;;;;;;;;;;29.91;19.69;101729.34;4861551;29;20010;-80
2021/10/03 09:03:04;;;;;;;;;;;;;;;29.75;18.90;101729.41;4863737;29;19927;-76
2021/10/03 09:05:32;;;;;;;;;;;;;;;29.23;20.20;101733.31;4875348;29;19943;-76
2021/10/03 09:08:04;;;;;;;;;;;;;;;30.48;19.58;101732.19;4876573;29;20383;-79
2021/10/03 09:10:49;;;;;;;;;;;;;;;31.58;18.79;101726.94;4875708;29;19980;-80
2021/10/03 09:13:15;;;;;;;;;;;;;;;32.19;18.42;101731.75;4877637;29;19970;-77
2021/10/03 09:15:42;;;;;;;;;;;;;;;31.74;18.88;101733.03;4876590;29;20018;-78
2021/10/03 09:18:11;;;;;;;;;;;;;;;30.93;18.31;101738.31;4886763;29;19935;-76
2021/10/03 09:20:37;;;;;;;;;;;;;;;30.57;18.81;101738.84;4882907;29;19948;-77
2021/10/03 09:23:28;;;;;;;;;;;;;;;30.23;19.66;101733.72;4873294;29;19927;-77
2021/10/03 09:25:54;;;;;;;;;;;;;;;30.46;18.68;101739.50;4900821;29;19993;-78
2021/10/03 09:28:23;;;;;;;;;;;;;;;30.67;19.30;101733.75;4881487;29;19928;-77
2021/10/03 09:30:53;;;;;;;;;;;;;;;31.90;18.71;101726.59;4858485;29;20022;-77
2021/10/03 09:33:22;;;;;;;;;;;;;;;32.40;18.05;101718.66;4878398;29;20038;-79
2021/10/03 09:35:58;;;;;;;;;;;;;;;31.43;18.06;101735.09;4871963;29;19924;-78
2021/10/03 09:38:28;;;;;;;;;;;;;;;29.51;19.52;101696.88;4876629;29;19935;-79
2021/10/03 09:41:04;;;;;;;;;;;;;;;30.19;18.50;101726.81;4876502;29;19947;-77
2021/10/03 09:43:42;;;;;;;;;;;;;;;30.45;19.19;101737.75;4875900;29;19979;-76
2021/10/03 09:46:09;;;;;;;;;;;;;;;29.30;19.16;101733.81;4859759;29;19920;-79
2021/10/03 09:48:46;;;;;;;;;;;;;;;29.24;20.50;101724.31;4877146;29;19927;-75
2021/10/03 09:51:16;;;;;;;;;;;;;;;29.74;19.45;101722.31;4874469;29;19991;-76
2021/10/03 09:53:44;;;;;;;;;;;;;;;29.44;19.40;101719.66;4876715;29;20416;-77
2021/10/03 09:56:13;;;;;;;;;;;;;;;29.25;18.62;101730.53;4864809;29;19934;-81
2021/10/03 09:59:03;;;;;;;;;;;;;;;27.47;18.89;101727.47;4876743;29;19928;-76
2021/10/03 10:01:33;;;;;;;;;;;;;;;25.54;21.29;101741.38;4859670;29;19924;-76
2021/10/03 10:03:59;;;;;;;;;;;;;;;23.94;22.50;101741.09;4875780;29;20317;-77
2021/10/03 10:06:24;;;;;;;;;;;;;;;22.97;23.12;101740.59;4875119;29;19931;-76
2021/10/03 10:08:55;;;;;;;;;;;;;;;21.65;24.02;101741.50;4875535;29;19924;-76
2021/10/03 10:11:39;;;;;;;;;;;;;;;21.01;25.39;101749.13;4873284;29;19930;-74
2021/10/03 10:14:06;;;;;;;;;;;;;;;20.94;25.26;101745.75;4874852;29;20041;-78
2021/10/03 10:16:43;;;;;;;;;;;;;;;20.39;24.93;101748.59;4875251;29;19932;-76
2021/10/03 10:19:28;;;;;;;;;;;;;;;19.86;26.08;101752.13;4874250;29;19934;-76
2021/10/03 10:22:16;;;;;;;;;;;;;;;18.98;26.62;101742.84;4878239;29;19927;-77
2021/10/03 10:24:47;;;;;;;;;;;;;;;18.77;26.96;101743.97;4891610;29;19959;-76
2021/10/03 10:27:33;;;;;;;;;;;;;;;18.42;27.58;101750.53;4871666;29;20403;-78
2021/10/03 10:30:15;;;;;;;;;;;;;;;18.22;27.55;101738.41;4866355;29;19923;-79
2021/10/03 10:32:56;;;;;;;;;;;;;;;17.94;28.00;101738.69;4874730;29;20057;-77
2021/10/03 10:35:23;;;;;;;;;;;;;;;17.56;28.23;101748.63;4870741;29;19980;-74
2021/10/03 10:37:48;;;;;;;;;;;;;;;17.28;29.00;101737.41;4878565;29;19928;-74
2021/10/03 10:40:26;;;;;;;;;;;;;;;17.31;28.94;101734.75;4874871;29;20000;-78
2021/10/03 10:43:04;;;;;;;;;;;;;;;16.97;28.31;101753.34;4888474;29;20380;-77
2021/10/03 10:45:30;;;;;;;;;;;;;;;16.38;30.14;101741.22;4857882;29;19923;-79
2021/10/03 10:48:08;;;;;;;;;;;;;;;16.27;30.60;101748.25;4874768;29;19924;-78
2021/10/03 10:50:38;;;;;;;;;;;;;;;16.06;30.05;101739.53;4877494;29;20054;-76
2021/10/03 10:53:30;;;;;;;;;;;;;;;15.98;31.32;101743.06;4890881;29;19907;-77
2021/10/03 10:56:08;;;;;;;;;;;;;;;15.72;30.66;101734.25;4886935;29;19923;-77
2021/10/03 10:58:33;;;;;;;;;;;;;;;15.31;32.01;101737.69;4876980;29;20312;-78
2021/10/03 11:01:13;;;;;;;;;;;;;;;15.13;32.72;101735.88;4876462;29;19931;-79
2021/10/03 11:03:41;;;;;;;;;;;;;;;14.89;33.25;101735.81;4873833;29;20376;-78
2021/10/03 11:06:11;;;;;;;;;;;;;;;14.94;33.48;101727.97;4873960;29;19946;-76
2021/10/03 11:08:55;;;;;;;;;;;;;;;15.14;32.93;101722.81;4874257;29;20327;-79
2021/10/03 11:11:21;;;;;;;;;;;;;;;15.11;33.04;101720.16;4872800;29;19930;-76
2021/10/03 11:13:47;;;;;;;;;;;;;;;14.78;32.95;101724.44;4875130;29;19924;-76
2021/10/03 11:16:27;;;;;;;;;;;;;;;14.63;33.95;101724.31;4856450;29;19924;-78
2021/10/03 11:19:06;;;;;;;;;;;;;;;14.43;34.25;101727.69;4874915;29;19934;-78
2021/10/03 11:21:34;;;;;;;;;;;;;;;14.15;34.85;101725.78;4875158;29;19924;-75
2021/10/03 11:24:01;;;;;;;;;;;;;;;14.03;35.04;101716.97;4853405;29;19931;-77
2021/10/03 11:26:27;;;;;;;;;;;;;;;14.04;35.29;101721.34;4872979;29;20420;-74
2021/10/03 11:28:57;;;;;;;;;;;;;;;13.76;35.64;101726.34;4874950;29;19923;-77
2021/10/03 11:31:36;;;;;;;;;;;;;;;13.60;36.36;101726.22;4874614;29;19930;-76
2021/10/03 11:34:03;;;;;;;;;;;;;;;13.78;36.43;101732.47;4873811;29;19979;-75
2021/10/03 11:36:29;;;;;;;;;;;;;;;13.84;35.93;101720.31;4842324;29;19924;-76
2021/10/03 11:38:56;;;;;;;;;;;;;;;13.78;36.13;101724.63;4842085;29;19932;-76
2021/10/03 11:41:22;;;;;;;;;;;;;;;13.77;36.20;101728.09;4858797;29;20073;-80
2021/10/03 11:43:47;;;;;;;;;;;;;;;13.79;36.31;101729.00;4873844;29;19935;-80
2021/10/03 11:46:13;;;;;;;;;;;;;;;13.68;36.40;101721.91;4860171;29;19976;-78
2021/10/03 11:48:39;;;;;;;;;;;;;;;13.57;36.69;101715.72;4859512;29;19924;-77
2021/10/03 11:51:04;;;;;;;;;;;;;;;13.53;36.47;101714.84;4842702;29;19931;-78
2021/10/03 11:53:31;;;;;;;;;;;;;;;13.48;36.56;101718.25;4874457;29;20325;-81
2021/10/03 11:56:07;;;;;;;;;;;;;;;13.29;36.91;101727.63;4842516;29;19935;-78
2021/10/03 11:58:40;;;;;;;;;;;;;;;12.97;37.49;101718.56;4881284;29;19928;-80
2021/10/03 12:01:06;;;;;;;;;;;;;;;12.92;37.79;101728.06;4863404;29;19926;-79
2021/10/03 12:03:36;;;;;;;;;;;;;;;12.78;38.18;101714.84;4858140;29;19924;-78
2021/10/03 12:06:19;;;;;;;;;;;;;;;12.65;38.28;101714.69;4874380;29;19943;-79
2021/10/03 12:08:48;;;;;;;;;;;;;;;12.49;38.59;101718.84;4873793;29;20311;-79
2021/10/03 12:11:14;;;;;;;;;;;;;;;12.53;39.14;101713.66;4842738;29;19944;-78
2021/10/03 12:13:40;;;;;;;;;;;;;;;12.63;38.78;101723.34;4869205;29;19975;-79
2021/10/03 12:16:13;;;;;;;;;;;;;;;12.62;38.60;101717.25;4873945;29;19931;-78
2021/10/03 12:18:41;;;;;;;;;;;;;;;12.70;38.66;101725.19;4857525;29;20030;-76
2021/10/03 12:21:08;;;;;;;;;;;;;;;12.67;38.39;101724.28;4873923;29;19924;-76
2021/10/03 12:23:38;;;;;;;;;;;;;;;12.27;38.24;101682.84;4873363;29;20002;-79
2021/10/03 12:26:16;;;;;;;;;;;;;;;12.40;39.02;101717.81;4873588;29;20033;-76
2021/10/03 12:28:52;;;;;;;;;;;;;;;12.41;39.49;101719.59;4858607;29;20293;-77
2021/10/03 12:31:37;;;;;;;;;;;;;;;12.34;39.60;101721.22;4856286;29;19939;-79
2021/10/03 12:34:03;;;;;;;;;;;;;;;12.39;39.76;101710.84;4869994;29;19923;-78
2021/10/03 12:36:29;;;;;;;;;;;;;;;12.39;39.62;101716.06;4883654;29;19947;-78
2021/10/03 12:38:54;;;;;;;;;;;;;;;12.39;40.06;101710.84;4882947;29;19932;-78
2021/10/03 12:41:20;;;;;;;;;;;;;;;12.42;39.89;101708.28;4877356;29;19924;-78
2021/10/03 12:43:55;;;;;;;;;;;;;;;12.43;40.14;101712.66;4878303;29;19924;-76
2021/10/03 12:46:21;;;;;;;;;;;;;;;12.17;39.71;101679.22;4876364;29;20065;-79